createdAt,value
2023-02-03T00:00:42.621Z,12.57
2023-02-03T00:03:12.740Z,16.73
2023-02-03T00:05:41.110Z,17.80
2023-02-03T00:08:09.529Z,10.30
2023-02-03T00:10:37.869Z,12.93
2023-02-03T00:13:06.222Z,10.97
2023-02-03T00:15:34.607Z,15.57
2023-02-03T00:18:03.497Z,12.93
2023-02-03T00:20:33.409Z,13.70
2023-02-03T00:23:05.382Z,17.13
2023-02-03T00:25:34.027Z,14.03
2023-02-03T00:28:02.530Z,15.93
2023-02-03T00:30:31.213Z,18.20
2023-02-03T00:32:59.542Z,21.53
2023-02-03T00:35:27.852Z,16.03
2023-02-03T00:37:57.910Z,22.67
2023-02-03T00:40:27.416Z,13.07
2023-02-03T00:42:56.096Z,9.53
2023-02-03T00:45:24.410Z,14.67
2023-02-03T00:47:52.988Z,13.37
2023-02-03T00:50:21.661Z,14.40
2023-02-03T00:52:50.181Z,18.97
2023-02-03T00:55:19.971Z,17.13
2023-02-03T00:57:48.402Z,9.60
2023-02-03T01:00:17.208Z,17.23
2023-02-03T01:02:45.768Z,11.40
2023-02-03T01:05:14.182Z,15.07
2023-02-03T01:07:42.628Z,17.10
2023-02-03T01:10:11.711Z,12.97
2023-02-03T01:12:41.713Z,15.37
2023-02-03T01:15:10.737Z,13.07
2023-02-03T01:17:39.153Z,10.97
2023-02-03T01:20:07.852Z,8.40
2023-02-03T01:22:36.522Z,11.87
2023-02-03T01:25:04.812Z,9.17
2023-02-03T01:27:33.536Z,7.93
2023-02-03T01:30:03.383Z,8.00
2023-02-03T01:32:31.902Z,9.63
2023-02-03T01:35:00.223Z,11.53
2023-02-03T01:37:29.112Z,14.20
2023-02-03T01:39:57.813Z,6.57
2023-02-03T01:42:26.363Z,6.17
2023-02-03T01:44:55.865Z,8.17
2023-02-03T01:47:27.539Z,9.47
2023-02-03T01:49:57.717Z,7.07
2023-02-03T01:52:26.196Z,10.80
2023-02-03T01:54:54.551Z,6.27
2023-02-03T01:57:23.655Z,9.37
2023-02-03T01:59:51.994Z,7.60
2023-02-03T02:02:20.416Z,12.90
2023-02-03T02:04:52.839Z,6.70
2023-02-03T02:07:21.324Z,5.80
2023-02-03T02:09:49.642Z,11.27
2023-02-03T02:12:18.006Z,7.87
2023-02-03T02:14:46.715Z,9.40
2023-02-03T02:17:17.498Z,10.30
2023-02-03T02:20:10.120Z,10.53
2023-02-03T02:22:40.390Z,8.63
2023-02-03T02:25:14.543Z,8.90
2023-02-03T02:27:51.545Z,12.20
2023-02-03T02:30:35.119Z,10.43
2023-02-03T02:33:05.957Z,6.93
2023-02-03T02:35:37.637Z,4.43
2023-02-03T02:38:06.595Z,7.87
2023-02-03T02:40:35.884Z,9.60
2023-02-03T02:43:07.278Z,9.70
2023-02-03T02:45:38.473Z,10.30
2023-02-03T02:48:09.619Z,10.73
2023-02-03T02:50:39.942Z,12.53
2023-02-03T02:53:08.220Z,12.03
2023-02-03T02:55:36.506Z,6.20
2023-02-03T02:58:05.792Z,13.13
2023-02-03T03:00:35.020Z,10.70
2023-02-03T03:03:12.325Z,10.80
2023-02-03T03:05:40.975Z,10.87
2023-02-03T03:08:09.306Z,9.83
2023-02-03T03:10:37.718Z,4.47
2023-02-03T03:13:06.854Z,9.27
2023-02-03T03:15:35.520Z,10.67
2023-02-03T03:18:06.310Z,14.03
2023-02-03T03:20:37.556Z,9.87
2023-02-03T03:23:07.079Z,8.97
2023-02-03T03:25:36.712Z,11.00
2023-02-03T03:28:05.577Z,8.00
2023-02-03T03:30:34.905Z,5.03
2023-02-03T03:33:03.299Z,7.57
2023-02-03T03:35:33.395Z,8.87
2023-02-03T03:38:08.044Z,8.93
2023-02-03T03:40:36.898Z,10.20
2023-02-03T03:43:05.737Z,10.47
2023-02-03T03:45:34.563Z,11.20
2023-02-03T03:48:03.176Z,11.43
2023-02-03T03:50:33.049Z,9.97
2023-02-03T03:53:03.324Z,8.40
2023-02-03T03:55:32.519Z,13.23
2023-02-03T03:58:01.089Z,9.10
2023-02-03T04:00:32.596Z,10.53
2023-02-03T04:03:01.992Z,11.47
2023-02-03T04:05:30.431Z,10.03
2023-02-03T04:07:58.879Z,11.77
2023-02-03T04:10:29.590Z,9.67
2023-02-03T04:12:58.102Z,8.13
2023-02-03T04:15:26.383Z,6.37
2023-02-03T04:17:57.161Z,12.70
2023-02-03T04:20:25.982Z,9.13
2023-02-03T04:22:54.447Z,10.40
2023-02-03T04:25:23.062Z,11.87
2023-02-03T04:27:53.001Z,12.30
2023-02-03T04:30:21.415Z,7.87
2023-02-03T04:32:49.719Z,11.07
2023-02-03T04:35:18.156Z,7.83
2023-02-03T04:37:46.527Z,6.90
2023-02-03T04:40:14.837Z,7.23
2023-02-03T04:42:43.215Z,9.77
2023-02-03T04:45:13.259Z,9.33
2023-02-03T04:47:41.601Z,13.57
2023-02-03T04:50:10.415Z,7.87
2023-02-03T04:52:38.739Z,8.47
2023-02-03T04:55:07.453Z,8.07
2023-02-03T04:57:35.831Z,10.77
2023-02-03T05:00:04.223Z,9.00
2023-02-03T05:02:33.964Z,14.83
2023-02-03T05:05:02.320Z,10.43
2023-02-03T05:07:30.636Z,11.97
2023-02-03T05:09:58.999Z,9.83
2023-02-03T05:12:27.293Z,10.57
2023-02-03T05:14:55.642Z,10.27
2023-02-03T05:17:24.023Z,9.93
2023-02-03T05:19:53.919Z,13.47
2023-02-03T05:22:22.231Z,8.40
2023-02-03T05:24:50.529Z,7.90
2023-02-03T05:27:18.945Z,8.80
2023-02-03T05:29:47.388Z,14.03
2023-02-03T05:32:15.802Z,10.07
2023-02-03T05:34:44.096Z,11.43
2023-02-03T05:37:13.779Z,11.20
2023-02-03T05:39:42.135Z,14.17
2023-02-03T05:42:09.480Z,13.83
2023-02-03T05:44:37.849Z,10.47
2023-02-03T05:47:06.434Z,11.33
2023-02-03T05:49:34.823Z,10.53
2023-02-03T05:52:03.152Z,12.97
2023-02-03T05:54:32.873Z,14.87
2023-02-03T05:57:01.322Z,13.73
2023-02-03T05:59:29.703Z,10.10
2023-02-03T06:01:58.030Z,12.87
2023-02-03T06:04:26.559Z,12.83
2023-02-03T06:06:55.093Z,14.07
2023-02-03T06:09:23.400Z,9.73
2023-02-03T06:11:53.219Z,14.63
2023-02-03T06:14:21.680Z,13.23
2023-02-03T06:16:50.039Z,14.90
2023-02-03T06:19:18.739Z,13.10
2023-02-03T06:21:47.234Z,9.93
2023-02-03T06:24:17.269Z,13.33
2023-02-03T06:26:45.675Z,20.03
2023-02-03T06:29:15.575Z,9.93
2023-02-03T06:31:43.999Z,16.13
2023-02-03T06:34:12.714Z,14.67
2023-02-03T06:36:41.199Z,9.83
2023-02-03T06:39:10.050Z,10.93
2023-02-03T06:41:38.372Z,11.63
2023-02-03T06:44:06.844Z,15.10
2023-02-03T06:46:36.693Z,17.40
2023-02-03T06:49:05.004Z,14.43
2023-02-03T06:51:33.291Z,10.90
2023-02-03T06:54:03.424Z,15.10
2023-02-03T06:56:31.721Z,12.47
2023-02-03T06:59:00.164Z,9.57
2023-02-03T07:01:29.854Z,14.43
2023-02-03T07:03:59.714Z,14.20
2023-02-03T07:06:29.240Z,11.80
2023-02-03T07:09:01.822Z,15.23
2023-02-03T07:11:30.468Z,12.07
2023-02-03T07:13:58.852Z,13.43
2023-02-03T07:16:27.938Z,11.13
2023-02-03T07:18:56.861Z,16.83
2023-02-03T07:21:27.906Z,13.70
2023-02-03T07:24:07.697Z,14.30
2023-02-03T07:26:36.252Z,17.87
2023-02-03T07:29:04.581Z,12.20
2023-02-03T07:31:34.460Z,13.43
2023-02-03T07:34:02.915Z,11.37
2023-02-03T07:36:32.606Z,13.43
2023-02-03T07:39:00.878Z,10.80
2023-02-03T07:41:29.402Z,16.03
2023-02-03T07:43:57.736Z,14.80
2023-02-03T07:46:26.104Z,10.37
2023-02-03T07:48:54.446Z,16.23
2023-02-03T07:51:23.095Z,18.17
2023-02-03T07:53:52.717Z,10.43
2023-02-03T07:56:21.109Z,17.20
2023-02-03T07:58:49.520Z,11.57
2023-02-03T08:01:18.508Z,17.60
2023-02-03T08:03:46.844Z,14.77
2023-02-03T08:06:15.153Z,10.37
2023-02-03T08:08:43.959Z,10.17
2023-02-03T08:11:13.783Z,10.03
2023-02-03T08:13:42.145Z,12.90
2023-02-03T08:16:10.504Z,11.37
2023-02-03T08:18:38.842Z,15.10
2023-02-03T08:21:07.334Z,13.13
2023-02-03T08:23:35.671Z,13.30
2023-02-03T08:26:04.017Z,11.80
2023-02-03T08:28:33.745Z,15.37
2023-02-03T08:31:02.274Z,13.33
2023-02-03T08:33:30.801Z,13.53
2023-02-03T08:36:01.049Z,10.33
2023-02-03T08:38:29.874Z,12.73
2023-02-03T08:40:58.232Z,13.30
2023-02-03T08:43:26.560Z,16.30
2023-02-03T08:45:56.305Z,16.13
2023-02-03T08:48:24.618Z,15.80
2023-02-03T08:50:53.072Z,16.70
2023-02-03T08:53:21.835Z,15.53
2023-02-03T08:55:50.637Z,18.27
2023-02-03T08:58:18.997Z,19.40
2023-02-03T09:00:49.784Z,17.87
2023-02-03T09:03:19.915Z,15.23
2023-02-03T09:05:48.259Z,12.63
2023-02-03T09:08:16.830Z,14.17
2023-02-03T09:10:45.302Z,12.00
2023-02-03T09:13:13.666Z,17.80
2023-02-03T09:15:42.152Z,16.40
2023-02-03T09:18:10.674Z,26.30
2023-02-03T09:20:40.484Z,11.60
2023-02-03T09:23:08.997Z,19.67
2023-02-03T09:25:37.300Z,20.57
2023-02-03T09:28:05.731Z,15.60
2023-02-03T09:30:34.398Z,16.77
2023-02-03T09:33:02.780Z,18.17
2023-02-03T09:35:31.480Z,14.10
2023-02-03T09:38:01.952Z,21.27
2023-02-03T09:40:32.018Z,13.77
2023-02-03T09:43:12.806Z,14.07
2023-02-03T09:45:41.230Z,16.77
2023-02-03T09:48:11.869Z,15.13
2023-02-03T09:50:40.240Z,17.70
2023-02-03T09:53:12.512Z,13.00
2023-02-03T09:55:41.297Z,20.37
2023-02-03T09:58:12.153Z,15.03
2023-02-03T10:00:42.353Z,11.23
2023-02-03T10:03:13.128Z,17.27
2023-02-03T10:05:53.511Z,15.20
2023-02-03T10:08:28.061Z,18.00
2023-02-03T10:11:09.838Z,15.87
2023-02-03T10:13:39.999Z,18.30
2023-02-03T10:16:15.542Z,10.83
2023-02-03T10:18:44.385Z,13.43
2023-02-03T10:21:14.577Z,14.73
2023-02-03T10:23:44.560Z,11.97
2023-02-03T10:26:15.152Z,14.33
2023-02-03T10:28:44.630Z,9.77
2023-02-03T10:31:16.943Z,11.90
2023-02-03T10:33:45.346Z,14.47
2023-02-03T10:36:16.359Z,9.97
2023-02-03T10:38:48.170Z,15.17
2023-02-03T10:41:16.811Z,12.07
2023-02-03T10:43:52.815Z,21.40
2023-02-03T10:46:21.777Z,13.13
2023-02-03T10:48:50.702Z,11.13
2023-02-03T10:51:20.965Z,15.50
2023-02-03T10:53:53.375Z,14.00
2023-02-03T10:56:22.848Z,13.70
2023-02-03T10:58:51.769Z,10.10
2023-02-03T11:01:21.176Z,12.33
2023-02-03T11:03:56.232Z,9.40
2023-02-03T11:06:24.620Z,12.57
2023-02-03T11:08:54.450Z,8.40
2023-02-03T11:11:25.066Z,10.37
2023-02-03T11:13:57.127Z,11.37
2023-02-03T11:16:28.528Z,15.13
2023-02-03T11:18:57.556Z,10.40
2023-02-03T11:21:26.531Z,8.47
2023-02-03T11:24:02.615Z,15.07
2023-02-03T11:26:32.840Z,10.17
2023-02-03T11:29:02.422Z,15.63
2023-02-03T11:31:31.155Z,15.43
2023-02-03T11:34:00.242Z,13.47
2023-02-03T11:36:29.477Z,12.07
2023-02-03T11:39:21.774Z,15.90
2023-02-03T11:41:51.548Z,14.03
2023-02-03T11:44:23.549Z,16.50
2023-02-03T11:46:53.129Z,17.67
2023-02-03T11:49:44.590Z,14.87
2023-02-03T11:52:18.288Z,12.57
2023-02-03T11:54:48.391Z,11.43
2023-02-03T11:57:22.375Z,18.37
2023-02-03T11:59:53.822Z,14.17
2023-02-03T12:02:27.441Z,12.20
2023-02-03T12:05:07.640Z,8.13
2023-02-03T12:07:57.076Z,11.57
2023-02-03T12:10:30.021Z,13.80
2023-02-03T12:13:01.223Z,9.93
2023-02-03T12:15:34.184Z,15.30
2023-02-03T12:18:05.846Z,12.53
2023-02-03T12:20:40.550Z,9.40
2023-02-03T12:23:11.756Z,8.23
2023-02-03T12:25:43.917Z,10.30
2023-02-03T12:28:32.842Z,13.33
2023-02-03T12:31:03.168Z,11.33
2023-02-03T12:33:32.602Z,9.63
2023-02-03T12:36:01.929Z,13.83
2023-02-03T12:38:31.796Z,10.17
2023-02-03T12:41:00.811Z,9.57
2023-02-03T12:43:32.789Z,15.13
2023-02-03T12:46:02.716Z,11.40
2023-02-03T12:48:34.120Z,17.27
2023-02-03T12:51:02.751Z,10.00
2023-02-03T12:53:31.818Z,7.70
2023-02-03T12:56:02.063Z,12.40
2023-02-03T12:58:34.478Z,16.27
2023-02-03T13:01:04.517Z,9.17
2023-02-03T13:03:34.798Z,9.50
2023-02-03T13:06:06.605Z,19.80
2023-02-03T13:08:36.176Z,10.23
2023-02-03T13:11:10.602Z,12.57
2023-02-03T13:13:42.084Z,7.53
2023-02-03T13:16:11.000Z,13.07
2023-02-03T13:18:39.513Z,10.77
2023-02-03T13:21:07.873Z,10.97
2023-02-03T13:23:36.279Z,10.43
2023-02-03T13:26:10.898Z,14.00
2023-02-03T13:28:53.408Z,11.53
2023-02-03T13:31:25.293Z,10.33
2023-02-03T13:34:03.245Z,13.57
2023-02-03T13:36:44.777Z,6.27
2023-02-03T13:39:19.927Z,10.13
2023-02-03T13:41:50.208Z,12.40
2023-02-03T13:44:20.548Z,10.50
2023-02-03T13:46:49.250Z,8.47
2023-02-03T13:49:20.492Z,12.23
2023-02-03T13:51:48.799Z,10.20
2023-02-03T13:54:17.947Z,12.27
2023-02-03T13:56:53.988Z,9.40
2023-02-03T13:59:31.967Z,10.20
2023-02-03T14:02:15.240Z,8.83
2023-02-03T14:04:54.431Z,12.00
2023-02-03T14:07:33.458Z,11.47
2023-02-03T14:10:10.083Z,12.47
2023-02-03T14:12:39.999Z,11.60
2023-02-03T14:15:32.908Z,10.93
2023-02-03T14:18:19.145Z,11.93
2023-02-03T14:20:52.271Z,10.57
2023-02-03T14:23:22.663Z,8.70
2023-02-03T14:25:53.372Z,6.27
2023-02-03T14:28:22.217Z,14.83
2023-02-03T14:31:17.861Z,10.73
2023-02-03T14:33:47.652Z,7.60
2023-02-03T14:36:30.511Z,11.80
2023-02-03T14:38:59.662Z,15.73
2023-02-03T14:41:28.746Z,14.00
2023-02-03T14:43:58.139Z,14.03
2023-02-03T14:46:42.774Z,12.33
2023-02-03T14:49:21.511Z,12.57
2023-02-03T14:51:56.930Z,9.17
2023-02-03T14:54:29.325Z,8.50
2023-02-03T14:57:18.628Z,15.80
2023-02-03T14:59:48.058Z,13.13
2023-02-03T15:02:17.564Z,16.30
2023-02-03T15:04:46.571Z,14.00
2023-02-03T15:07:33.483Z,10.17
2023-02-03T15:10:03.200Z,12.80
2023-02-03T15:12:37.594Z,11.13
2023-02-03T15:15:16.120Z,8.40
2023-02-03T15:17:44.399Z,10.60
2023-02-03T15:20:38.711Z,9.03
2023-02-03T15:23:18.817Z,17.60
2023-02-03T15:25:48.824Z,11.43
2023-02-03T15:28:20.520Z,11.27
2023-02-03T15:30:49.333Z,12.60
2023-02-03T15:33:21.013Z,15.83
2023-02-03T15:35:49.827Z,12.00
2023-02-03T15:38:19.669Z,11.97
2023-02-03T15:40:49.866Z,12.43
2023-02-03T15:43:18.973Z,8.97
2023-02-03T15:45:51.487Z,16.17
2023-02-03T15:48:20.581Z,16.40
2023-02-03T15:50:49.396Z,18.03
2023-02-03T15:53:19.088Z,11.57
2023-02-03T15:55:47.910Z,16.13
2023-02-03T15:58:19.612Z,9.80
2023-02-03T16:00:49.585Z,14.97
2023-02-03T16:03:19.977Z,13.83
2023-02-03T16:05:50.446Z,13.37
2023-02-03T16:08:35.150Z,19.07
2023-02-03T16:11:03.686Z,15.50
2023-02-03T16:13:36.099Z,18.60
2023-02-03T16:16:08.373Z,15.93
2023-02-03T16:18:37.073Z,13.80
2023-02-03T16:21:05.646Z,27.73
2023-02-03T16:23:34.166Z,14.27
2023-02-03T16:26:09.469Z,14.63
2023-02-03T16:28:56.976Z,17.27
2023-02-03T16:31:42.992Z,11.13
2023-02-03T16:34:32.314Z,18.07
2023-02-03T16:37:18.424Z,15.07
2023-02-03T16:40:04.459Z,17.27
2023-02-03T16:42:55.945Z,11.90
2023-02-03T16:45:43.920Z,12.63
2023-02-03T16:48:30.336Z,15.80
2023-02-03T16:50:59.842Z,13.80
2023-02-03T16:53:29.144Z,14.83
2023-02-03T16:55:58.155Z,15.70
2023-02-03T16:58:26.783Z,13.77
2023-02-03T17:00:56.756Z,21.17
2023-02-03T17:03:25.770Z,17.23
2023-02-03T17:05:54.381Z,15.53
2023-02-03T17:08:23.184Z,11.23
2023-02-03T17:10:51.567Z,15.73
2023-02-03T17:13:20.538Z,11.73
2023-02-03T17:15:49.886Z,13.40
2023-02-03T17:18:19.769Z,15.23
2023-02-03T17:20:49.201Z,18.97
2023-02-03T17:23:17.549Z,13.97
2023-02-03T17:25:45.953Z,15.70
2023-02-03T17:28:14.537Z,12.13
2023-02-03T17:30:43.113Z,13.40
2023-02-03T17:33:12.919Z,15.20
2023-02-03T17:35:43.439Z,14.90
2023-02-03T17:38:11.946Z,12.47
2023-02-03T17:54:33.242Z,15.13
2023-02-03T17:57:01.516Z,14.50
2023-02-03T17:59:29.919Z,16.70
2023-02-03T18:01:58.214Z,17.30
2023-02-03T18:04:26.622Z,14.13
2023-02-03T18:06:56.604Z,11.83
2023-02-03T18:09:27.890Z,11.80
2023-02-03T18:11:56.413Z,15.00
2023-02-03T18:14:25.005Z,14.40
2023-02-03T18:16:54.524Z,17.97
2023-02-03T18:19:22.877Z,9.77
2023-02-03T18:21:54.187Z,16.20
2023-02-03T18:24:27.944Z,15.23
2023-02-03T18:26:56.474Z,10.93
2023-02-03T18:29:26.181Z,15.03
2023-02-03T18:31:54.666Z,14.17
2023-02-03T18:34:23.910Z,13.30
2023-02-03T18:36:52.272Z,17.07
2023-02-03T18:39:21.072Z,14.07
2023-02-03T18:41:50.790Z,14.67
2023-02-03T18:44:19.127Z,13.93
2023-02-03T18:46:47.659Z,18.63
2023-02-03T18:49:16.038Z,19.57
2023-02-03T18:51:44.405Z,16.93
2023-02-03T18:54:15.505Z,18.50
2023-02-03T18:56:43.840Z,15.23
2023-02-03T18:59:13.541Z,19.00
2023-02-03T19:01:41.891Z,16.67
2023-02-03T19:04:11.777Z,21.00
2023-02-03T19:06:45.404Z,23.27
2023-02-03T19:09:16.201Z,20.93
2023-02-03T19:11:44.675Z,17.20
2023-02-03T19:14:16.505Z,15.43
2023-02-03T19:16:44.845Z,17.33
2023-02-03T19:19:14.643Z,14.70
2023-02-03T19:21:43.169Z,24.03
2023-02-03T19:24:13.262Z,22.97
2023-02-03T19:26:41.666Z,15.40
2023-02-03T19:29:10.002Z,19.20
2023-02-03T19:31:40.070Z,19.30
2023-02-03T19:34:08.547Z,18.03
2023-02-03T19:36:38.488Z,23.97
2023-02-03T19:39:07.068Z,19.93
2023-02-03T19:41:36.540Z,19.33
2023-02-03T19:44:05.772Z,18.83
2023-02-03T19:46:36.987Z,13.53
2023-02-03T19:49:10.359Z,24.63
2023-02-03T19:51:38.868Z,15.07
2023-02-03T19:54:07.276Z,21.10
2023-02-03T19:56:35.597Z,24.10
2023-02-03T19:59:04.448Z,18.17
2023-02-03T20:01:32.859Z,21.53
2023-02-03T20:04:01.243Z,17.90
2023-02-03T20:06:31.597Z,23.90
2023-02-03T20:09:00.227Z,19.60
2023-02-03T20:11:28.542Z,21.97
2023-02-03T20:13:56.883Z,14.43
2023-02-03T20:16:25.287Z,18.37
2023-02-03T20:18:53.714Z,13.60
2023-02-03T20:21:22.120Z,23.00
2023-02-03T20:23:53.556Z,24.83
2023-02-03T20:26:21.918Z,20.20
2023-02-03T20:28:50.271Z,25.10
2023-02-03T20:31:18.929Z,22.23
2023-02-03T20:33:47.543Z,25.80
2023-02-03T20:36:15.984Z,26.03
2023-02-03T20:38:45.341Z,29.03
2023-02-03T20:41:15.181Z,25.90
2023-02-03T20:43:43.514Z,21.40
2023-02-03T20:46:11.988Z,26.00
2023-02-03T20:48:40.659Z,24.63
2023-02-03T20:51:11.512Z,21.93
2023-02-03T20:53:39.970Z,28.27
2023-02-03T20:56:09.455Z,20.70
2023-02-03T20:58:39.335Z,30.53
2023-02-03T21:01:08.817Z,21.17
2023-02-03T21:03:54.743Z,24.83
2023-02-03T21:06:23.122Z,29.00
2023-02-03T21:08:51.473Z,28.83
2023-02-03T21:11:20.839Z,23.93
2023-02-03T21:13:50.660Z,26.37
2023-02-03T21:16:19.580Z,28.43
2023-02-03T21:18:49.784Z,25.70
2023-02-03T21:21:20.875Z,31.53
2023-02-03T21:23:49.355Z,23.57
2023-02-03T21:26:19.748Z,28.57
2023-02-03T21:29:04.315Z,25.23
2023-02-03T21:31:33.756Z,28.03
2023-02-03T21:34:06.795Z,29.97
2023-02-03T21:36:38.453Z,29.97
2023-02-03T21:39:10.082Z,22.67
2023-02-03T21:41:38.523Z,28.60
2023-02-03T21:44:24.913Z,25.77
2023-02-03T21:46:53.465Z,29.63
2023-02-03T21:49:22.464Z,24.87
2023-02-03T21:51:52.406Z,31.80
2023-02-03T21:54:30.455Z,28.53
2023-02-03T21:56:58.930Z,28.73
2023-02-03T21:59:30.095Z,27.00
2023-02-03T22:02:03.595Z,21.23
2023-02-03T22:04:32.102Z,26.17
2023-02-03T22:07:00.617Z,28.50
2023-02-03T22:09:29.173Z,23.50
2023-02-03T22:12:01.422Z,26.47
2023-02-03T22:14:31.741Z,28.17
2023-02-03T22:17:00.070Z,26.90
2023-02-03T22:19:28.537Z,20.33
2023-02-03T22:21:57.438Z,31.93
2023-02-03T22:24:25.996Z,27.50
2023-02-03T22:26:55.070Z,29.60
2023-02-03T22:29:23.513Z,29.47
2023-02-03T22:31:53.475Z,35.27
2023-02-03T22:34:23.337Z,28.13
2023-02-03T22:36:51.782Z,31.47
2023-02-03T22:39:20.186Z,24.30
2023-02-03T22:41:48.830Z,31.90
2023-02-03T22:44:18.370Z,27.53
2023-02-03T22:46:46.785Z,28.53
2023-02-03T22:49:17.739Z,30.60
2023-02-03T22:51:46.078Z,26.43
2023-02-03T22:54:14.493Z,28.73
2023-02-03T22:56:43.215Z,26.83
2023-02-03T22:59:11.622Z,21.30
2023-02-03T23:01:40.002Z,29.53
2023-02-03T23:04:08.421Z,25.30
2023-02-03T23:06:38.134Z,25.40
2023-02-03T23:09:06.485Z,27.40
2023-02-03T23:11:34.915Z,25.50
2023-02-03T23:14:03.400Z,37.53
2023-02-03T23:16:32.004Z,32.03
2023-02-03T23:19:00.374Z,31.00
2023-02-03T23:21:29.729Z,28.17
2023-02-03T23:23:59.611Z,29.93
2023-02-03T23:26:28.150Z,26.97
2023-02-03T23:28:56.616Z,30.30
2023-02-03T23:31:25.117Z,29.17
2023-02-03T23:34:07.583Z,27.00
2023-02-03T23:36:36.032Z,31.20
2023-02-03T23:39:06.418Z,26.27
2023-02-03T23:41:34.984Z,29.77
2023-02-03T23:44:03.625Z,29.37
2023-02-03T23:46:32.075Z,20.43
2023-02-03T23:49:00.864Z,27.73
2023-02-03T23:51:29.259Z,18.93
2023-02-03T23:53:57.743Z,30.27
2023-02-03T23:56:27.525Z,31.30
2023-02-03T23:58:56.160Z,21.00
